ETWM

Meppe Airport

Germany
METAR ETWM 251820Z AUTO VRB01KT 9999 // ////// 09/07 Q1037 ///
Observed Flight Rules
Sep-25 @ 18:20 UTC (42 minutes ago)
Wind Visibility
Variable at 1 knots 10,000+ meters
Temperatures Readings
Current 9°C / 48°F
Dewpoint 7°C / 45°F
Humidity 87%
Altimeter 30.62" Hg
Pressure 1037 hPa
Elevation 21
METAR ETWM 251820Z AUTO VRB01KT 9999 // ////// 09/07 Q1037 ///
Observed Flight Rules
Sep-25 @ 18:20 UTC
(42 minutes ago)
Wind Visibility
Variable at 1 knots 10,000+ meters
Temperature Dewpoint
9°C / 48°F 7°C / 45°F
Humidity Altimeter Pressure
87% 30.62" Hg 1037 hPa